Hutchinson County Airport - Borger, Texas, United States - FAA: BGD - ICAO: KBGD - IATA: BGD

 
  Longest Runway: 6,300 feet   Approach Types:    Customs Landing Rights Airport: No   Port of Entry: No

Local Forecast

Today (8/31): Sunny, with a high near 94. South wind 10 to 15 mph, with gusts as high as 20 mph.

Tonight (8/31): Mostly clear, with a low around 69. South wind 10 to 15 mph, with gusts as high as 20 mph.

Tuesday (9/1): Sunny, with a high near 92. South southwest wind 10 to 15 mph, with gusts as high as 20 mph.

Tuesday Night (9/1): Partly cloudy, with a low around 70. South wind 10 to 20 mph, with gusts as high as 25 mph.

Wednesday (9/2): Mostly sunny, with a high near 94. South wind 10 to 15 mph, with gusts as high as 25 mph.

Wednesday Night (9/2): Partly cloudy, with a low around 71. South wind around 15 mph, with gusts as high as 25 mph.

Thursday (9/3): Mostly sunny, with a high near 94. South wind 10 to 15 mph, with gusts as high as 20 mph.



Current Weather (METAR)

2015/08/31 12:51 KBGD 311251Z AUTO 21005KT 10SM CLR 21/12 A3002 RMK AO2 SLP123 T02060122

BORGER HUTCHINSON CO AIRPORT , TX, United States (KBGD) 35-42N 101-24W 927M Aug 31, 2015 - 08:51 AM EDT / 2015.08.31 1251 UTC Wind: from the SSW (210 degrees) at 6 MPH (5 KT):0 Visibility: 10 mile(s):0 Sky conditions: clear Temperature: 69.1 F (20.6 C) Dew Point: 54.0 F (12.2 C) Relative Humidity: 58% Pressure (altimeter): 30.02 in. Hg (1016 hPa) ob: KBGD 311251Z AUTO 21005KT 10SM CLR 21/12 A3002 RMK AO2 SLP123 T02060122 cycle: 13

Terminal Forecast (TAF)